Time;durP1;ratioP1;P1;durP2;ratioP2;P2;SDS_P1;SDS_P2;PMS_P1;PMS_P2;Temp;Humidity;BMP_temperature;BMP_pressure;BME280_temperature;BME280_humidity;BME280_pressure;Samples;Min_cycle;Max_cycle;Signal;HPM_P1;HPM_P2
2022/10/11 00:00:00;;;;;;;13.80;3.17;;;10.00;99.90;;;;;;5071852;28;20188;-81
2022/10/11 00:02:26;;;;;;;12.43;2.83;;;10.00;99.90;;;;;;5072136;28;20028;-82
2022/10/11 00:04:51;;;;;;;7.40;2.73;;;10.00;99.90;;;;;;5071983;28;20033;-81
2022/10/11 00:07:18;;;;;;;11.87;2.70;;;9.90;99.90;;;;;;5071571;28;20038;-81
2022/10/11 00:09:44;;;;;;;11.50;2.80;;;9.90;99.90;;;;;;5071755;28;20113;-81
2022/10/11 00:12:10;;;;;;;12.53;2.90;;;9.80;99.90;;;;;;5071769;28;20480;-81
2022/10/11 00:14:37;;;;;;;11.33;3.53;;;9.90;99.90;;;;;;5054105;28;20111;-82
2022/10/11 00:17:03;;;;;;;8.43;2.70;;;9.90;99.90;;;;;;5071485;28;20028;-81
2022/10/11 00:19:28;;;;;;;11.37;2.93;;;9.90;99.90;;;;;;5071409;28;20040;-82
2022/10/11 00:21:54;;;;;;;10.23;3.03;;;9.90;99.90;;;;;;5071516;28;20048;-82
2022/10/11 00:24:20;;;;;;;13.03;3.23;;;9.90;99.90;;;;;;5071506;28;20504;-82
2022/10/11 00:26:46;;;;;;;10.67;2.83;;;9.90;99.90;;;;;;5071191;28;20028;-81
2022/10/11 00:29:11;;;;;;;8.00;2.53;;;9.90;99.90;;;;;;5071261;28;20028;-81
2022/10/11 00:31:38;;;;;;;10.90;2.80;;;9.80;99.90;;;;;;5071476;28;20033;-81
2022/10/11 00:34:04;;;;;;;13.57;3.23;;;9.80;99.90;;;;;;5071834;28;20101;-81
2022/10/11 00:36:30;;;;;;;10.17;2.70;;;9.90;99.90;;;;;;5070911;28;20082;-81
2022/10/11 00:38:56;;;;;;;12.77;3.00;;;9.90;99.90;;;;;;5071152;28;20029;-82
2022/10/11 00:41:21;;;;;;;13.90;3.07;;;9.80;99.90;;;;;;5071154;28;20021;-82
2022/10/11 00:43:47;;;;;;;14.57;3.90;;;9.80;99.90;;;;;;5053312;28;20039;-82
2022/10/11 00:46:27;;;;;;;9.73;3.00;;;9.70;99.90;;;;;;5070971;28;20388;-82
2022/10/11 00:49:01;;;;;;;13.13;3.27;;;9.70;99.90;;;;;;5070790;28;20029;-82
2022/10/11 00:51:53;;;;;;;9.30;2.60;;;9.70;99.90;;;;;;5071000;28;20045;-82
2022/10/11 00:54:24;;;;;;;15.80;2.90;;;9.70;99.90;;;;;;5071120;28;20417;-82
2022/10/11 00:56:58;;;;;;;15.53;3.03;;;9.70;99.90;;;;;;5070939;28;20576;-82
2022/10/11 00:59:28;;;;;;;9.40;3.03;;;9.70;99.90;;;;;;5071194;28;20119;-82
2022/10/11 01:01:54;;;;;;;8.37;2.70;;;9.60;99.90;;;;;;5070920;28;20028;-82
2022/10/11 01:04:20;;;;;;;10.17;2.37;;;9.60;99.90;;;;;;5071180;28;20032;-81
2022/10/11 01:06:48;;;;;;;16.83;2.87;;;9.60;99.90;;;;;;5070599;28;20074;-82
2022/10/11 01:09:14;;;;;;;9.70;2.30;;;9.60;99.90;;;;;;5070687;28;20032;-82
2022/10/11 01:11:42;;;;;;;9.17;2.50;;;9.50;99.90;;;;;;5070743;28;20512;-82
2022/10/11 01:14:30;;;;;;;11.60;2.70;;;9.50;99.90;;;;;;5070862;28;20051;-82
2022/10/11 01:17:23;;;;;;;13.97;3.37;;;9.50;99.90;;;;;;5070540;28;20492;-82
2022/10/11 01:20:11;;;;;;;16.67;3.23;;;9.50;99.90;;;;;;5070508;28;20032;-82
2022/10/11 01:23:02;;;;;;;10.43;2.73;;;9.50;99.90;;;;;;5070815;28;20029;-81
2022/10/11 01:25:46;;;;;;;10.87;2.70;;;9.50;99.90;;;;;;5070900;28;20107;-81
2022/10/11 01:28:36;;;;;;;9.17;2.67;;;9.50;99.90;;;;;;5070615;28;20439;-81
2022/10/11 01:31:26;;;;;;;8.03;2.77;;;9.40;99.90;;;;;;5070539;28;20431;-81
2022/10/11 01:34:00;;;;;;;12.17;3.30;;;9.30;99.90;;;;;;5070328;28;20036;-81
2022/10/11 01:37:01;;;;;;;9.27;2.40;;;9.40;99.90;;;;;;5052467;28;20485;-81
2022/10/11 01:39:37;;;;;;;10.80;3.00;;;9.30;99.90;;;;;;5070441;28;20040;-82
2022/10/11 01:42:05;;;;;;;6.07;2.40;;;9.40;99.90;;;;;;5070599;28;20031;-82
2022/10/11 01:44:33;;;;;;;14.83;3.40;;;9.40;99.90;;;;;;5070600;28;20028;-82
2022/10/11 01:46:59;;;;;;;11.90;3.00;;;9.30;99.90;;;;;;5070242;28;20028;-82
2022/10/11 01:49:24;;;;;;;9.60;3.30;;;9.40;99.90;;;;;;5070027;28;20471;-82
2022/10/11 01:51:53;;;;;;;11.03;3.33;;;9.40;99.90;;;;;;5070539;28;20061;-82
2022/10/11 01:54:34;;;;;;;9.45;3.05;;;9.30;99.90;;;;;;5070370;28;20064;-82
2022/10/11 01:57:21;;;;;;;10.30;3.40;;;9.30;99.90;;;;;;5070147;28;20029;-82
2022/10/11 01:59:52;;;;;;;15.07;3.57;;;9.30;99.90;;;;;;5070481;28;20456;-82
2022/10/11 02:02:52;;;;;;;12.20;3.60;;;9.30;99.90;;;;;;5070330;28;20378;-82
2022/10/11 02:05:21;;;;;;;10.10;3.50;;;9.30;99.90;;;;;;5070487;28;20033;-82
2022/10/11 02:07:52;;;;;;;14.95;3.97;;;9.30;99.90;;;;;;5070476;28;20028;-82
2022/10/11 02:10:24;;;;;;;9.77;3.43;;;9.30;99.90;;;;;;5073586;28;20032;-82
2022/10/11 02:12:59;;;;;;;10.17;3.30;;;9.20;99.90;;;;;;5074153;28;20024;-82
2022/10/11 02:15:28;;;;;;;12.00;3.73;;;9.20;99.90;;;;;;5074337;28;20063;-82
2022/10/11 02:17:57;;;;;;;;;;;9.30;99.90;;;;;;5074271;28;20032;-82
2022/10/11 02:20:27;;;;;;;9.73;3.63;;;9.20;99.90;;;;;;5073814;28;19915;-82
2022/10/11 02:23:00;;;;;;;10.40;3.40;;;9.30;99.90;;;;;;5074035;28;20024;-82
2022/10/11 02:25:29;;;;;;;9.93;3.53;;;9.20;99.90;;;;;;5074034;28;20029;-82
2022/10/11 02:27:59;;;;;;;7.57;3.30;;;9.20;99.90;;;;;;5073647;28;20024;-82
2022/10/11 02:30:25;;;;;;;9.50;3.73;;;9.10;99.90;;;;;;5073624;28;20045;-82
2022/10/11 02:32:53;;;;;;;8.43;3.70;;;9.10;99.90;;;;;;5073694;28;20073;-82
2022/10/11 02:35:22;;;;;;;7.20;3.30;;;9.00;99.90;;;;;;5073979;28;20032;-82
2022/10/11 02:37:52;;;;;;;;;;;9.00;99.90;;;;;;5073841;28;20024;-82
2022/10/11 02:40:37;;;;;;;6.43;3.30;;;9.00;99.90;;;;;;5073459;28;19912;-82
2022/10/11 02:43:29;;;;;;;7.30;3.27;;;9.00;99.90;;;;;;5073751;28;20449;-82
2022/10/11 02:46:00;;;;;;;7.03;3.90;;;9.00;99.90;;;;;;5073277;28;20420;-82
2022/10/11 02:48:28;;;;;;;6.33;3.97;;;9.00;99.90;;;;;;5055810;28;20089;-82
2022/10/11 02:50:55;;;;;;;6.43;3.63;;;9.00;99.90;;;;;;5073473;28;20122;-82
2022/10/11 02:53:22;;;;;;;5.93;3.70;;;9.00;99.90;;;;;;5073563;28;20032;-82
2022/10/11 02:55:50;;;;;;;6.93;3.87;;;9.00;99.90;;;;;;5055505;28;20512;-82
2022/10/11 02:58:16;;;;;;;;;;;9.00;99.90;;;;;;5055927;28;20049;-82
2022/10/11 03:00:42;;;;;;;6.83;4.33;;;9.00;99.90;;;;;;5073200;28;19954;-82
2022/10/11 03:03:08;;;;;;;7.87;4.40;;;9.00;99.90;;;;;;5073495;28;20394;-82
2022/10/11 03:05:39;;;;;;;8.60;4.77;;;9.00;99.90;;;;;;5073485;28;20035;-82
2022/10/11 03:08:10;;;;;;;9.97;5.30;;;9.00;99.90;;;;;;5073211;28;20085;-81
2022/10/11 03:10:39;;;;;;;8.63;4.60;;;9.00;99.90;;;;;;5054973;28;20495;-81
2022/10/11 03:13:05;;;;;;;8.60;4.68;;;8.90;99.90;;;;;;5073231;28;20127;-81
2022/10/11 03:15:31;;;;;;;8.87;5.23;;;8.90;99.90;;;;;;5073357;28;20107;-81
2022/10/11 03:17:56;;;;;;;8.50;4.73;;;8.80;99.90;;;;;;5073038;28;20024;-81
2022/10/11 03:20:23;;;;;;;7.23;4.60;;;8.80;99.90;;;;;;5071782;28;20036;-81
2022/10/11 03:22:49;;;;;;;7.57;4.57;;;8.90;99.90;;;;;;5073313;28;20024;-81
2022/10/11 03:25:15;;;;;;;8.13;4.83;;;8.90;99.90;;;;;;5055238;28;20097;-81
2022/10/11 03:27:41;;;;;;;7.70;4.47;;;8.90;99.90;;;;;;5054992;28;20035;-81
2022/10/11 03:30:10;;;;;;;8.67;4.47;;;8.80;99.90;;;;;;5055014;28;20044;-81
2022/10/11 03:32:36;;;;;;;9.18;4.13;;;8.80;99.90;;;;;;5073272;28;20032;-81
2022/10/11 03:35:02;;;;;;;8.00;4.53;;;8.80;99.90;;;;;;5073075;28;20397;-81
2022/10/11 03:37:28;;;;;;;8.87;4.50;;;8.90;99.90;;;;;;5072895;28;20036;-81
2022/10/11 03:39:54;;;;;;;10.87;5.13;;;8.80;99.90;;;;;;5072677;28;20469;-81
2022/10/11 03:42:19;;;;;;;7.63;4.70;;;8.80;99.90;;;;;;5073106;28;20040;-81
2022/10/11 03:44:48;;;;;;;8.90;4.57;;;8.70;99.90;;;;;;5072940;28;20047;-81
2022/10/11 03:47:14;;;;;;;7.93;4.47;;;8.70;99.90;;;;;;5072881;28;20060;-81
2022/10/11 03:49:40;;;;;;;9.00;4.37;;;8.70;99.90;;;;;;5072605;28;20103;-81
2022/10/11 03:52:05;;;;;;;8.13;4.43;;;8.70;99.90;;;;;;5072890;28;20461;-81
2022/10/11 03:54:31;;;;;;;10.37;4.60;;;8.70;99.90;;;;;;5072943;28;20029;-81
2022/10/11 03:56:57;;;;;;;7.73;4.20;;;8.70;99.90;;;;;;5072276;28;20027;-82
2022/10/11 03:59:23;;;;;;;7.80;4.07;;;8.70;99.90;;;;;;5072914;28;20032;-82
2022/10/11 04:01:49;;;;;;;8.77;4.03;;;8.70;99.90;;;;;;5072990;28;20055;-81
2022/10/11 04:04:15;;;;;;;7.00;3.83;;;8.60;99.90;;;;;;5072858;28;20362;-81
2022/10/11 04:06:40;;;;;;;8.67;3.77;;;8.70;99.90;;;;;;5054496;28;20029;-81
2022/10/11 04:09:06;;;;;;;8.27;3.93;;;8.70;99.90;;;;;;5072991;28;20040;-81
2022/10/11 04:11:32;;;;;;;6.27;4.10;;;8.60;99.90;;;;;;5082951;28;20039;-81
2022/10/11 04:13:58;;;;;;;7.37;4.00;;;8.60;99.90;;;;;;5090415;28;20036;-80
2022/10/11 04:16:23;;;;;;;8.33;4.70;;;8.50;99.90;;;;;;5078784;28;20031;-81
2022/10/11 04:18:49;;;;;;;7.83;4.37;;;8.60;99.90;;;;;;5072053;28;20238;-82
2022/10/11 04:21:18;;;;;;;9.30;5.10;;;8.60;99.90;;;;;;5072046;28;20058;-81
2022/10/11 04:23:43;;;;;;;6.70;4.47;;;8.60;99.90;;;;;;5072313;28;20036;-81
2022/10/11 04:26:10;;;;;;;8.77;4.90;;;8.60;99.90;;;;;;5071999;28;20056;-81
2022/10/11 04:28:35;;;;;;;7.03;4.60;;;8.60;99.90;;;;;;5072954;28;20033;-81
2022/10/11 04:31:03;;;;;;;9.33;4.83;;;8.60;99.90;;;;;;5053561;28;20035;-81
2022/10/11 04:33:30;;;;;;;8.47;4.73;;;8.60;99.90;;;;;;5071977;28;20085;-81
2022/10/11 04:35:55;;;;;;;9.40;5.10;;;8.60;99.90;;;;;;5071603;28;20514;-81
2022/10/11 04:38:22;;;;;;;10.40;5.20;;;8.60;99.90;;;;;;5071737;28;20046;-81
2022/10/11 04:40:48;;;;;;;8.33;4.93;;;8.50;99.90;;;;;;5053606;28;20469;-81
2022/10/11 04:43:15;;;;;;;13.60;5.77;;;8.60;99.90;;;;;;5071626;28;20063;-81
2022/10/11 04:45:42;;;;;;;8.27;5.50;;;8.50;99.90;;;;;;5071495;28;20107;-81
2022/10/11 04:48:08;;;;;;;8.40;5.10;;;8.50;99.90;;;;;;5071518;28;20135;-81
2022/10/11 04:50:33;;;;;;;9.40;5.77;;;8.50;99.90;;;;;;5071090;28;20143;-81
2022/10/11 04:53:00;;;;;;;10.90;5.70;;;8.50;99.90;;;;;;5071526;28;20033;-80
2022/10/11 04:55:27;;;;;;;10.40;5.40;;;8.50;99.90;;;;;;5053789;28;20031;-81
2022/10/11 04:57:54;;;;;;;12.13;5.27;;;8.50;99.90;;;;;;5069813;28;20040;-82
2022/10/11 05:00:19;;;;;;;10.03;6.10;;;8.50;99.90;;;;;;5053255;28;20033;-81
2022/10/11 05:02:45;;;;;;;9.57;6.10;;;8.50;99.90;;;;;;5071384;28;20459;-81
2022/10/11 05:05:16;;;;;;;10.30;6.50;;;8.50;99.90;;;;;;5071212;28;20025;-81
2022/10/11 05:07:42;;;;;;;10.17;6.20;;;8.60;99.90;;;;;;5071104;28;20029;-80
2022/10/11 05:10:08;;;;;;;9.67;6.33;;;8.60;99.90;;;;;;5070879;28;20477;-82
2022/10/11 05:12:34;;;;;;;9.90;6.40;;;8.60;99.90;;;;;;5071245;28;20060;-81
2022/10/11 05:15:00;;;;;;;9.90;6.13;;;8.50;99.90;;;;;;5071582;28;20084;-81
2022/10/11 05:17:25;;;;;;;11.10;7.00;;;8.60;99.90;;;;;;5070966;28;20082;-81
2022/10/11 05:19:51;;;;;;;9.63;6.53;;;8.60;99.90;;;;;;5070800;28;20659;-81
2022/10/11 05:22:17;;;;;;;10.73;6.60;;;8.50;99.90;;;;;;5071154;28;20028;-81
2022/10/11 05:24:43;;;;;;;11.90;7.00;;;8.50;99.90;;;;;;5071137;28;20086;-82
2022/10/11 05:27:08;;;;;;;11.73;6.77;;;8.50;99.90;;;;;;5070783;28;20028;-82
2022/10/11 05:29:34;;;;;;;12.20;6.77;;;8.50;99.90;;;;;;5070684;28;20496;-81
2022/10/11 05:32:00;;;;;;;10.27;6.73;;;8.60;99.90;;;;;;5070958;28;20023;-81
2022/10/11 05:34:25;;;;;;;9.77;6.00;;;8.60;99.90;;;;;;5071001;28;20024;-80
2022/10/11 05:36:51;;;;;;;11.20;6.90;;;8.60;99.90;;;;;;5070930;28;20025;-81
2022/10/11 05:39:17;;;;;;;13.20;6.97;;;8.60;99.90;;;;;;5070703;28;20025;-82
2022/10/11 05:41:43;;;;;;;13.60;7.40;;;8.60;99.90;;;;;;5070895;28;20106;-82
2022/10/11 05:44:08;;;;;;;12.97;7.13;;;8.60;99.90;;;;;;5054944;28;20040;-82
2022/10/11 05:46:34;;;;;;;11.10;6.73;;;8.50;99.90;;;;;;5074913;28;20039;-82
2022/10/11 05:49:00;;;;;;;13.70;7.27;;;8.60;99.90;;;;;;5074569;28;20031;-81
2022/10/11 05:51:25;;;;;;;19.67;9.53;;;8.60;99.90;;;;;;5074893;28;20051;-82
2022/10/11 05:53:51;;;;;;;15.53;7.80;;;8.60;99.90;;;;;;5075060;28;20025;-81
2022/10/11 05:56:23;;;;;;;15.43;8.50;;;8.60;99.90;;;;;;5074670;28;20116;-81
2022/10/11 05:58:50;;;;;;;17.67;8.73;;;8.50;99.90;;;;;;5115274;22;20048;-88
2022/10/11 06:01:29;;;;;;;15.68;8.52;;;8.50;99.90;;;;;;5057205;28;20024;-88
2022/10/11 06:04:08;;;;;;;;;;;;;;;;;;;;;
2022/10/11 06:06:49;;;;;;;;;;;;;;;;;;;;;
2022/10/11 06:09:38;;;;;;;30.25;10.35;;;8.60;99.90;;;;;;5048466;28;20033;-89
2022/10/11 06:12:11;;;;;;;28.63;12.20;;;8.70;99.90;;;;;;5037025;28;20025;-88
2022/10/11 06:14:42;;;;;;;28.33;11.73;;;8.80;99.90;;;;;;5054863;28;20095;-89
2022/10/11 06:17:18;;;;;;;29.70;10.93;;;8.90;99.90;;;;;;5053440;28;20029;-87
2022/10/11 06:19:46;;;;;;;26.57;10.03;;;8.90;99.90;;;;;;5036717;28;20103;-88
2022/10/11 06:22:17;;;;;;;28.63;10.27;;;8.90;99.90;;;;;;5036751;28;20043;-89
2022/10/11 06:25:14;;;;;;;26.23;10.25;;;8.90;99.90;;;;;;5038339;28;20032;-88
2022/10/11 06:27:54;;;;;;;;;;;;;;;;;;;;;
2022/10/11 06:30:28;;;;;;;24.90;10.18;;;9.00;99.90;;;;;;5053260;28;20036;-89
2022/10/11 06:33:16;;;;;;;22.33;9.17;;;9.00;99.90;;;;;;5038275;28;20112;-89
2022/10/11 06:36:33;;;;;;;;;;;;;;;;;;;;;
2022/10/11 06:39:09;;;;;;;24.57;10.17;;;8.90;99.90;;;;;;5036495;28;20499;-89
2022/10/11 06:41:58;;;;;;;29.00;9.90;;;8.90;99.90;;;;;;5036613;28;20093;-88
2022/10/11 06:44:37;;;;;;;26.03;11.13;;;8.90;99.90;;;;;;5037812;28;20090;-89
2022/10/11 06:47:31;;;;;;;25.13;9.80;;;8.90;99.90;;;;;;5037913;28;20047;-89
2022/10/11 06:50:05;;;;;;;26.13;9.97;;;8.90;99.90;;;;;;5036231;28;20119;-88
2022/10/11 06:52:34;;;;;;;25.13;9.57;;;9.00;99.90;;;;;;5054296;28;20481;-88
2022/10/11 06:55:02;;;;;;;25.80;10.30;;;9.00;99.90;;;;;;5053979;28;20052;-89
2022/10/11 06:57:36;;;;;;;21.63;9.23;;;9.00;99.90;;;;;;5036059;28;20031;-89
2022/10/11 07:00:08;;;;;;;22.97;10.03;;;9.00;99.90;;;;;;5035807;28;20025;-88
2022/10/11 07:02:47;;;;;;;23.03;9.70;;;9.10;99.90;;;;;;5020628;28;20063;-89
2022/10/11 07:05:26;;;;;;;;;;;;;;;;;;;;;
2022/10/11 07:08:02;;;;;;;;;;;;;;;;;;;;;
2022/10/11 07:10:36;;;;;;;21.33;8.87;;;9.10;99.90;;;;;;5035936;28;20029;-88
2022/10/11 07:13:17;;;;;;;17.50;9.07;;;9.10;99.90;;;;;;5036110;28;20377;-89
2022/10/11 07:15:56;;;;;;;16.60;7.87;;;9.20;99.90;;;;;;5036241;28;20021;-88
2022/10/11 07:18:25;;;;;;;17.15;8.55;;;9.20;99.90;;;;;;5035680;28;20025;-88
2022/10/11 07:21:20;;;;;;;19.77;9.13;;;9.30;99.90;;;;;;5018976;28;20507;-88
2022/10/11 07:23:51;;;;;;;18.53;9.13;;;9.40;99.90;;;;;;5035787;28;20032;-88
2022/10/11 07:26:20;;;;;;;17.00;9.20;;;9.40;99.90;;;;;;5035708;28;20120;-83
2022/10/11 07:28:54;;;;;;;18.98;9.63;;;9.50;99.90;;;;;;5053584;28;20056;-88
2022/10/11 07:31:40;;;;;;;21.60;9.30;;;9.50;99.90;;;;;;5035645;28;20029;-84
2022/10/11 07:34:06;;;;;;;26.50;10.43;;;9.50;99.90;;;;;;5035650;28;20501;-85
2022/10/11 07:36:32;;;;;;;20.17;10.13;;;9.40;99.90;;;;;;5035000;28;20025;-82
2022/10/11 07:38:58;;;;;;;20.10;10.07;;;9.50;99.90;;;;;;5052954;28;20040;-86
2022/10/11 07:41:23;;;;;;;20.50;10.27;;;9.40;99.90;;;;;;5052767;28;20029;-85
2022/10/11 07:43:49;;;;;;;23.87;11.07;;;9.50;99.90;;;;;;5034988;28;20485;-89
2022/10/11 07:46:17;;;;;;;21.83;10.53;;;9.60;99.90;;;;;;5034545;28;20096;-86
2022/10/11 07:53:05;;;;;;;22.27;11.00;;;9.70;99.90;;;;;;4953090;29;20077;-92
2022/10/11 07:56:01;;;;;;;19.97;10.97;;;9.80;99.90;;;;;;4952090;28;20139;-90
2022/10/11 07:59:02;;;;;;;18.63;9.63;;;9.90;99.90;;;;;;5049134;28;20044;-94
2022/10/11 08:01:34;;;;;;;24.27;11.03;;;9.90;99.90;;;;;;5010084;28;20041;-87
2022/10/11 08:04:00;;;;;;;;;;;10.00;99.90;;;;;;5035448;28;20170;-85
2022/10/11 08:06:30;;;;;;;16.93;9.17;;;10.00;99.90;;;;;;5033613;28;20392;-83
2022/10/11 08:08:59;;;;;;;19.17;10.23;;;10.00;99.90;;;;;;5051701;28;20056;-86
2022/10/11 08:11:26;;;;;;;26.35;10.73;;;10.10;99.90;;;;;;5017157;28;20661;-86
2022/10/11 08:13:55;;;;;;;24.23;11.13;;;10.10;99.90;;;;;;5051795;28;20029;-87
2022/10/11 08:16:23;;;;;;;21.35;12.35;;;10.10;99.90;;;;;;5051523;28;20017;-86
2022/10/11 08:18:54;;;;;;;27.38;16.02;;;10.10;99.90;;;;;;5050168;28;20029;-87
2022/10/11 08:21:25;;;;;;;28.57;15.53;;;10.20;99.90;;;;;;5017549;28;20078;-86
2022/10/11 08:23:51;;;;;;;29.90;16.30;;;10.20;99.90;;;;;;5033527;28;20033;-87
2022/10/11 08:26:17;;;;;;;25.53;15.63;;;10.20;99.90;;;;;;5051878;28;20418;-87
2022/10/11 08:28:45;;;;;;;27.23;15.30;;;10.20;99.90;;;;;;5051770;28;20036;-87
2022/10/11 08:31:12;;;;;;;32.13;15.37;;;10.20;99.90;;;;;;5051790;28;20025;-87
2022/10/11 08:33:50;;;;;;;;;;;;;;;;;;;;;
2022/10/11 08:36:24;;;;;;;20.03;11.90;;;10.30;99.90;;;;;;5032024;28;20450;-87
2022/10/11 08:38:52;;;;;;;27.73;12.90;;;10.40;99.90;;;;;;5033532;28;20029;-87
2022/10/11 08:41:44;;;;;;;;;;;;;;;;;;;;;
2022/10/11 08:44:26;;;;;;;22.07;12.50;;;10.50;99.90;;;;;;5048254;28;20489;-87
2022/10/11 08:47:19;;;;;;;24.20;11.90;;;10.50;99.90;;;;;;5034605;28;20044;-87
2022/10/11 08:49:48;;;;;;;23.33;11.90;;;10.60;99.90;;;;;;5033299;28;20029;-87
2022/10/11 08:52:22;;;;;;;19.57;9.90;;;10.60;99.90;;;;;;5051281;28;20043;-87
2022/10/11 08:55:04;;;;;;;29.70;12.87;;;10.60;99.90;;;;;;5033566;28;20029;-87
2022/10/11 08:57:34;;;;;;;25.90;11.83;;;10.70;99.90;;;;;;5016919;28;20029;-87
2022/10/11 09:00:12;;;;;;;24.93;11.73;;;10.70;99.90;;;;;;5016760;28;20352;-87
2022/10/11 09:03:00;;;;;;;26.50;12.23;;;10.80;99.90;;;;;;5051219;28;20029;-87
2022/10/11 09:06:00;;;;;;;19.93;11.37;;;10.80;99.90;;;;;;5051031;28;20493;-87
2022/10/11 09:08:47;;;;;;;22.77;11.80;;;10.90;99.90;;;;;;5050402;28;20036;-87
2022/10/11 09:11:51;;;;;;;23.33;11.07;;;10.90;99.90;;;;;;5051109;28;20032;-87
2022/10/11 09:15:14;;;;;;;;;;;;;;;;;;;;;
2022/10/11 09:25:36;;;;;;;18.70;8.53;;;11.20;99.90;;;;;;5028840;28;20021;-89
2022/10/11 09:32:56;;;;;;;21.73;9.20;;;11.30;99.90;;;;;;5010087;28;20445;-87
2022/10/11 09:36:15;;;;;;;22.77;9.60;;;11.40;99.90;;;;;;5009420;28;20553;-90
2022/10/11 09:43:08;;;;;;;16.50;7.00;;;11.40;99.90;;;;;;4977275;28;20044;-94
2022/10/11 09:45:54;;;;;;;18.77;7.70;;;11.50;99.90;;;;;;5012043;28;20478;-94
2022/10/11 09:48:43;;;;;;;;;;;11.50;99.90;;;;;;5008647;28;20038;-86
2022/10/11 09:51:19;;;;;;;19.20;8.50;;;11.50;99.90;;;;;;4992181;28;19917;-87
2022/10/11 09:54:03;;;;;;;22.07;8.77;;;11.60;99.90;;;;;;5028741;28;20547;-88
2022/10/11 09:56:32;;;;;;;16.43;7.57;;;11.60;99.90;;;;;;5034742;28;20133;-84
2022/10/11 09:59:28;;;;;;;24.13;8.63;;;11.60;99.90;;;;;;5051171;28;20053;-87
2022/10/11 10:02:12;;;;;;;26.87;8.80;;;11.70;99.90;;;;;;5032498;28;20396;-86
2022/10/11 10:04:59;;;;;;;15.87;6.90;;;11.70;99.90;;;;;;5057365;28;20029;-90
2022/10/11 10:07:26;;;;;;;18.33;7.60;;;11.80;99.90;;;;;;5032407;28;20580;-86
2022/10/11 10:09:52;;;;;;;18.53;7.60;;;11.70;99.90;;;;;;5032036;28;20401;-87
2022/10/11 10:12:22;;;;;;;16.97;7.00;;;11.80;99.90;;;;;;5030857;28;20033;-87
2022/10/11 10:15:16;;;;;;;22.53;7.47;;;11.80;99.90;;;;;;5048784;28;20120;-87
2022/10/11 10:17:50;;;;;;;13.17;5.87;;;11.80;99.90;;;;;;5030890;28;20032;-87
2022/10/11 10:20:26;;;;;;;16.40;6.37;;;11.90;99.90;;;;;;5048478;28;20388;-87
2022/10/11 10:22:52;;;;;;;18.25;7.53;;;11.90;99.90;;;;;;5031206;28;20063;-87
2022/10/11 10:25:30;;;;;;;13.20;7.30;;;12.00;99.90;;;;;;5031113;28;20371;-87
2022/10/11 10:27:59;;;;;;;19.90;7.27;;;12.00;99.90;;;;;;5032159;28;20037;-87
2022/10/11 10:31:28;;;;;;;19.77;8.63;;;12.20;99.90;;;;;;5037672;28;20045;-87
2022/10/11 10:34:23;;;;;;;;;;;;;;;;;;;;;
2022/10/11 10:37:06;;;;;;;22.92;9.57;;;12.30;99.90;;;;;;5052554;28;20025;-87
2022/10/11 10:40:08;;;;;;;20.17;8.30;;;12.40;99.90;;;;;;5035659;28;20048;-87
2022/10/11 10:42:47;;;;;;;;;;;;;;;;;;;;;
2022/10/11 10:45:16;;;;;;;21.25;9.30;;;12.50;99.90;;;;;;5052041;28;20048;-88
2022/10/11 10:48:09;;;;;;;23.50;11.07;;;12.50;99.90;;;;;;5036218;28;20037;-87
2022/10/11 10:50:45;;;;;;;26.77;11.90;;;12.60;99.90;;;;;;5053308;28;20033;-87
2022/10/11 10:53:45;;;;;;;23.58;11.65;;;12.60;99.90;;;;;;5035651;28;20104;-87
2022/10/11 10:56:28;;;;;;;24.52;11.68;;;12.70;99.90;;;;;;5035990;28;20103;-87
2022/10/11 10:59:13;;;;;;;24.10;11.77;;;12.70;99.90;;;;;;5035526;28;20047;-87
2022/10/11 11:02:09;;;;;;;29.02;14.20;;;12.80;99.90;;;;;;5035472;28;20489;-87
2022/10/11 11:05:17;;;;;;;;;;;;;;;;;;;;;
2022/10/11 11:08:19;;;;;;;27.35;13.60;;;12.90;99.90;;;;;;5051815;28;20036;-87
2022/10/11 11:11:03;;;;;;;36.20;15.18;;;13.00;99.90;;;;;;5051616;28;20029;-88
2022/10/11 11:13:59;;;;;;;32.00;15.82;;;13.00;99.90;;;;;;5053166;28;20542;-87
2022/10/11 11:16:36;;;;;;;34.58;17.92;;;13.10;99.90;;;;;;5035131;28;20029;-88
2022/10/11 11:19:20;;;;;;;32.15;16.38;;;13.00;99.90;;;;;;5053091;28;20055;-87
2022/10/11 11:21:59;;;;;;;33.30;17.20;;;13.00;99.90;;;;;;5053099;28;20029;-87
2022/10/11 11:24:54;;;;;;;35.20;16.73;;;13.00;99.90;;;;;;5053073;28;20029;-87
2022/10/11 11:27:57;;;;;;;36.55;17.50;;;13.00;99.90;;;;;;5051549;28;20172;-87
2022/10/11 11:30:49;;;;;;;34.38;17.02;;;13.10;99.90;;;;;;5053278;28;20033;-87
2022/10/11 11:33:59;;;;;;;35.90;16.30;;;13.20;99.90;;;;;;5035342;28;20509;-87
2022/10/11 11:36:50;;;;;;;32.53;16.33;;;13.20;99.90;;;;;;5052928;28;20122;-87
2022/10/11 11:39:22;;;;;;;27.85;14.05;;;13.20;99.90;;;;;;5052620;28;20108;-87
2022/10/11 11:42:06;;;;;;;34.22;14.30;;;13.20;99.90;;;;;;5033957;28;20087;-87
2022/10/11 11:44:44;;;;;;;31.95;14.60;;;13.20;99.90;;;;;;5052730;28;20021;-88
2022/10/11 11:47:17;;;;;;;26.63;14.25;;;13.30;99.90;;;;;;5034483;28;20033;-87
2022/10/11 11:49:55;;;;;;;26.23;13.75;;;13.20;99.90;;;;;;5051127;28;20033;-87
2022/10/11 11:52:33;;;;;;;26.40;13.25;;;13.10;99.90;;;;;;5052423;28;20052;-87
2022/10/11 11:55:22;;;;;;;31.95;15.43;;;13.00;99.90;;;;;;5034608;28;20036;-88
2022/10/11 11:58:13;;;;;;;28.40;14.25;;;13.00;99.90;;;;;;5052457;28;20048;-88
2022/10/11 12:01:10;;;;;;;30.65;13.55;;;12.90;99.90;;;;;;5034179;28;20028;-87
2022/10/11 12:03:54;;;;;;;22.50;8.75;;;12.80;99.90;;;;;;5018711;28;20120;-88
2022/10/11 12:06:34;;;;;;;16.00;7.05;;;12.80;99.90;;;;;;5034096;28;20081;-87
2022/10/11 12:09:18;;;;;;;18.05;5.93;;;12.80;99.90;;;;;;5034306;28;20067;-88
2022/10/11 12:11:56;;;;;;;16.98;5.53;;;12.80;99.90;;;;;;5033988;28;20033;-87
2022/10/11 12:14:49;;;;;;;16.17;5.10;;;12.80;99.90;;;;;;5052007;28;20036;-87
2022/10/11 12:17:24;;;;;;;16.45;7.95;;;12.80;99.90;;;;;;5051585;28;20060;-87
2022/10/11 12:20:14;;;;;;;26.83;11.43;;;12.90;99.90;;;;;;5051709;28;20033;-87
2022/10/11 12:23:04;;;;;;;27.58;12.40;;;13.00;99.90;;;;;;5052124;28;20060;-87
2022/10/11 12:25:41;;;;;;;31.00;13.00;;;13.00;99.90;;;;;;5033869;28;20128;-87
2022/10/11 12:28:58;;;;;;;28.60;12.75;;;13.10;99.90;;;;;;5050338;28;20037;-87
2022/10/11 12:31:37;;;;;;;;;;;;;;;;;;;;;
2022/10/11 12:34:24;;;;;;;24.50;10.82;;;13.30;99.90;;;;;;5051652;28;20029;-88
2022/10/11 12:36:50;;;;;;;25.08;10.00;;;13.30;99.90;;;;;;5017056;28;20032;-87
2022/10/11 12:39:19;;;;;;;20.48;8.45;;;13.40;99.90;;;;;;5033466;28;20025;-87
2022/10/11 12:41:48;;;;;;;19.73;8.15;;;13.40;99.90;;;;;;5050386;28;20025;-87
2022/10/11 12:44:29;;;;;;;20.38;7.72;;;13.50;99.90;;;;;;5051616;28;20031;-87
2022/10/11 12:47:15;;;;;;;23.40;7.88;;;13.50;99.90;;;;;;5033720;28;20035;-87
2022/10/11 12:50:04;;;;;;;23.70;8.07;;;13.50;99.90;;;;;;5033292;28;20033;-87
2022/10/11 12:52:59;;;;;;;19.65;7.63;;;13.50;99.90;;;;;;5034382;28;20055;-88
2022/10/11 12:55:59;;;;;;;16.02;7.68;;;13.40;99.90;;;;;;5051142;28;20470;-87
2022/10/11 12:58:43;;;;;;;18.10;7.40;;;13.40;99.90;;;;;;5049825;28;20076;-87
2022/10/11 13:01:21;;;;;;;19.13;5.93;;;13.30;99.90;;;;;;5033259;28;20034;-87
2022/10/11 13:04:08;;;;;;;11.45;4.93;;;13.40;99.90;;;;;;5033431;28;20363;-88
2022/10/11 13:06:55;;;;;;;12.32;4.28;;;13.30;99.90;;;;;;5033046;28;20079;-87
2022/10/11 13:09:31;;;;;;;10.55;2.15;;;13.30;99.90;;;;;;5033487;28;20492;-87
2022/10/11 13:12:23;;;;;;;;;;;;;;;;;;;;;
2022/10/11 13:15:04;;;;;;;8.50;2.10;;;13.30;99.30;;;;;;5049781;28;20032;-87
2022/10/11 13:17:43;;;;;;;13.05;3.58;;;13.30;99.30;;;;;;5050566;28;20029;-88
2022/10/11 13:20:22;;;;;;;11.88;3.22;;;13.30;99.00;;;;;;5033034;28;20083;-87
2022/10/11 13:23:02;;;;;;;;;;;;;;;;;;;;;
2022/10/11 13:25:36;;;;;;;8.82;2.22;;;13.30;98.60;;;;;;5050897;28;20028;-87
2022/10/11 13:28:08;;;;;;;9.98;2.28;;;13.40;98.70;;;;;;5032904;28;20032;-88
2022/10/11 13:30:34;;;;;;;;;;;13.30;98.60;;;;;;5033261;28;20025;-87
2022/10/11 13:33:09;;;;;;;10.57;1.90;;;13.30;99.10;;;;;;5032827;28;19908;-87
2022/10/11 13:35:37;;;;;;;7.95;2.05;;;13.30;99.70;;;;;;5033076;28;20591;-88
2022/10/11 13:38:07;;;;;;;7.10;1.70;;;13.30;99.60;;;;;;5032579;28;20029;-87
2022/10/11 13:40:34;;;;;;;9.40;2.00;;;13.30;98.70;;;;;;5032432;28;20033;-87
2022/10/11 13:43:06;;;;;;;8.38;1.85;;;13.30;98.70;;;;;;5050541;28;20123;-88
2022/10/11 13:45:42;;;;;;;;;;;;;;;;;;;;;
2022/10/11 13:48:14;;;;;;;8.65;2.03;;;13.40;98.90;;;;;;5050743;28;20059;-87
2022/10/11 13:51:04;;;;;;;11.43;2.35;;;13.40;98.90;;;;;;5032889;28;20133;-87
2022/10/11 13:53:33;;;;;;;8.48;1.90;;;13.50;98.70;;;;;;5032826;28;20098;-88
2022/10/11 13:56:04;;;;;;;9.20;2.70;;;13.60;97.90;;;;;;5032425;28;20500;-87
2022/10/11 13:58:55;;;;;;;;;;;;;;;;;;;;;
2022/10/11 14:01:37;;;;;;;8.85;1.95;;;13.70;96.30;;;;;;5048999;28;20045;-88
2022/10/11 14:04:06;;;;;;;7.85;2.20;;;13.70;96.80;;;;;;5050799;28;20037;-87
2022/10/11 14:06:54;;;;;;;;;;;;;;;;;;;;;
2022/10/11 14:09:41;;;;;;;6.53;1.80;;;13.70;97.20;;;;;;5054465;28;20493;-88